Aeroporto :
LOGIN :

Iscrizione | Disclaimer

   EN    FR    IT 

 










Sommario :    VFR   VFR Marginale   IFR   IFR Intensivo   IFR Molto Intensivo
Visibilità : 
Base nubi : 
>= 8 km
>= 3000ft
5 / 8 km
1000 / 3000 ft
1500m / 5 km
500 / 1000 ft
800 / 1500m
200 / 500 ft
< 800m
< 200 ft
Simboli :   Temporali  Nebbia  Neve Forte  Precipitazioni Forti  Vento > 20 kt
SIGMETs :   Varie  Temporali  Ghiacco  Turbolenza  Onda orograficha  Ceneri Vulcaniche







- Altitudine del aeroporto : 1768 ft


LEHC - Huesca Pirineos

ULTIMO METAR :
  • 231830Z AUTO 12002KT 9999 NCD 10/02 Q1024

METARs OBSOLETI :
  • 231800Z AUTO 00000KT 9999 NCD 17/01 Q1024
  • 231730Z AUTO 12004KT 060V170 9999 NCD 18/M01 Q1024
  • 231700Z AUTO 15002KT 9999 NCD 20/M02 Q1024
  • 231630Z AUTO 17004KT 130V210 9999 NCD 19/M02 Q1024
  • 231600Z 18004KT 080V250 CAVOK 20/00 Q1024

TAF TAF LEHC
Valido dal 23 a 15 ore il 24 a 15 ore UTC


231400Z 2315/2415 17005KT 9999 FEW060 TX24/2413Z TN09/2406Z
BECMG 2319/2321 VRB03KT
TEMPO 2322/2408 04007KT
BECMG 2408/2410 23007KT
Nessun NOTAM noto per questo aeroporto.
2 SIGMETs conosciuti per la FIR Madrid (LECM) :
 
Temporali affogati
LECM SIGMET 4 VALID 231624/231900 LEVA
LECM MADRID FIR/UIR EMBD TS FCST WI N3845 W00452 - N3639 W00515 - N3655 W00236 - N3843 W00222 - N3845 W00452 TOP FL300 STNR NC=
Forte onda orograficha
LECM SIGMET 3 VALID 231600/232000 LEVA
LECM MADRID FIR/UIR SEV MTW FCST WI N3849 W00213 - N3709 W00444 - N3657 W00425 - N3808 W00149 - N3849 W00213 SFC/FL300 STNR NC=



MetMap, La meteo Aeronautica in un colpo d'occhio ! - Copyright ORBIFLY Dicembre 2007 - Disclaimer

ORBIFLY MET'MAP TEAM :

Programmazione e sviluppo : Alexandra Zaïnal
Concezione e sviluppo : Baudouin d'Aumeries
Co-Programmazione e sviluppo : Marc-Olivier Méhu
Supporto tecnico e logistico : Manuel Goepfert
Aiuto per la traduzione : Arnaldo La Scala

Contatto : metmap@orbifly.com




FONTI E CREDITI :

   NOAA